EDT,Max TemperatureF,Mean TemperatureF,Min TemperatureF,Max Dew PointF,MeanDew PointF,Min DewpointF,Max Humidity, Mean Humidity, Min Humidity, Max Sea Level PressureIn, Mean Sea Level PressureIn, Min Sea Level PressureIn, Max VisibilityMiles, Mean VisibilityMiles, Min VisibilityMiles, Max Wind SpeedMPH, Mean Wind SpeedMPH, Max Gust SpeedMPH,PrecipitationIn, CloudCover, Events, WindDirDegrees
2012-10-1,63,50,37,51,46,37,100,81,50,29.91,29.85,29.80,10,10,10,17,5,,0.01,2,,295
2012-10-2,59,51,43,49,45,41,97,82,51,29.99,29.94,29.91,10,10,10,9,6,,0.01,2,,73
2012-10-3,71,58,46,51,47,44,96,77,39,29.97,29.95,29.93,10,10,10,10,6,,0.01,0,,132
2012-10-4,72,58,43,53,45,31,100,72,41,29.95,29.81,29.68,10,10,9,28,10,46,0.01,3,Rain-Thunderstorm,186
2012-10-5,42,40,37,36,32,28,93,77,61,29.87,29.82,29.79,10,9,5,29,22,41,0.23,8,Rain,269
2012-10-6,43,38,33,34,30,23,96,82,53,30.14,30.02,29.88,10,7,1,18,13,28,0.47,8,Rain-Snow,336
2012-10-7,48,38,30,33,27,20,96,65,36,30.10,30.02,29.91,10,9,2,21,7,31,0.07,4,Snow,243
2012-10-8,55,44,35,45,30,20,93,61,37,29.90,29.76,29.60,10,10,6,15,7,24,0.12,4,Rain,196
2012-10-9,48,44,37,45,38,33,93,80,70,29.71,29.65,29.60,10,10,9,23,11,31,0.02,6,Rain,255
2012-10-10,41,36,33,32,27,21,87,70,52,29.98,29.84,29.68,10,9,2,22,18,33,0.02,8,Rain-Snow,297
2012-10-11,42,37,32,35,30,19,100,80,51,30.25,29.95,29.84,10,8,2,26,9,34,0.18,7,Rain-Snow,280
2012-10-12,45,35,27,30,26,20,85,69,49,30.43,30.32,30.18,10,10,10,10,5,,0.00,3,,318
2012-10-13,45,41,37,43,37,24,100,87,53,30.17,29.88,29.74,10,8,2,12,7,,0.02,8,Rain,175
2012-10-14,46,42,39,45,41,37,100,92,85,29.82,29.75,29.67,10,8,2,20,7,25,0.01,8,Rain,17
2012-10-15,46,37,30,37,32,28,92,76,57,29.93,29.87,29.76,10,10,10,15,9,23,0.00,5,,339
2012-10-16,51,44,37,48,43,33,100,92,82,29.87,29.63,29.49,10,7,2,8,5,,0.62,6,Rain,141
2012-10-17,57,50,44,52,48,43,100,90,77,29.50,29.36,29.27,10,7,2,13,6,,0.04,2,Rain,97
2012-10-18,54,50,46,54,50,45,100,97,93,29.47,29.25,29.11,10,5,0,20,8,37,0.41,8,Fog-Rain,88
2012-10-19,51,46,42,45,42,39,93,88,71,29.69,29.61,29.46,10,9,2,12,5,,0.13,6,Rain,75
2012-10-20,57,44,35,45,41,35,100,92,69,29.85,29.76,29.68,10,5,0,15,7,,0.01,3,Fog,316
2012-10-21,55,46,36,46,40,35,100,83,59,29.97,29.92,29.85,10,10,10,8,4,,0.01,1,,82
2012-10-22,55,49,45,46,44,42,93,82,72,30.11,30.05,29.96,10,10,10,13,5,,0.00,2,,49
2012-10-23,51,47,44,50,48,43,100,97,89,30.07,29.95,29.85,10,4,0,18,13,31,1.16,8,Fog-Rain-Thunderstorm,102
2012-10-24,59,55,51,58,55,51,100,99,94,29.88,29.79,29.65,10,3,0,20,6,28,0.05,8,Fog-Rain-Thunderstorm,89
2012-10-25,53,48,37,57,46,33,100,97,83,29.83,29.60,29.44,10,3,0,25,10,33,0.17,8,Fog-Rain-Thunderstorm,311
2012-10-26,39,36,35,32,28,19,87,69,50,30.27,30.08,29.85,10,10,5,26,21,38,0.02,8,Rain-Snow,273
2012-10-27,36,32,28,29,26,21,100,81,60,30.35,30.29,30.23,10,6,0,17,7,26,0.08,7,Fog-Snow,251
2012-10-28,43,32,21,27,23,19,92,69,45,30.41,30.38,30.34,10,10,10,7,3,,0.00,2,,119
2012-10-29,45,33,23,30,27,21,96,78,53,30.43,30.38,30.32,10,10,5,7,2,,0.00,1,,70
2012-10-30,37,35,33,28,23,21,76,64,55,30.30,30.17,30.01,10,10,10,21,11,29,0.00,0,,17
2012-10-31,35,32,30,32,29,25,96,89,70,29.99,29.88,29.82,10,4,0,18,15,26,0.03,7,Fog-Snow,334